createdAt,value
2018-09-27T00:00:46.553Z,7.17
2018-09-27T00:03:16.701Z,8.03
2018-09-27T00:05:45.392Z,6.67
2018-09-27T00:08:14.030Z,7.53
2018-09-27T00:10:42.701Z,6.70
2018-09-27T00:13:11.368Z,6.13
2018-09-27T00:15:40.094Z,6.53
2018-09-27T00:18:08.741Z,5.80
2018-09-27T00:20:37.412Z,6.20
2018-09-27T00:23:06.106Z,6.10
2018-09-27T00:25:34.778Z,5.83
2018-09-27T00:28:04.250Z,6.63
2018-09-27T00:30:32.892Z,5.77
2018-09-27T00:33:01.563Z,5.70
2018-09-27T00:35:30.193Z,5.33
2018-09-27T00:37:58.916Z,5.57
2018-09-27T00:40:27.564Z,4.90
2018-09-27T00:42:56.223Z,5.87
2018-09-27T00:45:24.882Z,5.23
2018-09-27T00:47:53.590Z,6.30
2018-09-27T00:50:22.238Z,5.90
2018-09-27T00:52:50.894Z,5.60
2018-09-27T00:55:19.547Z,5.47
2018-09-27T00:57:51.117Z,5.53
2018-09-27T01:00:19.745Z,5.60
2018-09-27T01:02:48.645Z,6.37
2018-09-27T01:05:17.283Z,5.30
2018-09-27T01:07:45.909Z,5.20
2018-09-27T01:10:14.577Z,6.27
2018-09-27T01:12:43.261Z,5.67
2018-09-27T01:15:12.029Z,5.50
2018-09-27T01:17:40.677Z,5.33
2018-09-27T01:20:09.323Z,5.23
2018-09-27T01:22:38.054Z,5.30
2018-09-27T01:25:07.073Z,5.40
2018-09-27T01:27:35.793Z,5.37
2018-09-27T01:30:04.809Z,5.13
2018-09-27T01:32:33.470Z,4.70
2018-09-27T01:35:02.493Z,5.17
2018-09-27T01:37:31.286Z,4.73
2018-09-27T01:40:00.834Z,5.17
2018-09-27T01:42:29.501Z,5.53
2018-09-27T01:44:58.177Z,5.90
2018-09-27T01:47:26.954Z,5.97
2018-09-27T01:49:55.597Z,5.63
2018-09-27T01:52:24.232Z,5.27
2018-09-27T01:54:52.902Z,5.40
2018-09-27T01:57:21.576Z,5.30
2018-09-27T01:59:50.265Z,5.60
2018-09-27T02:02:18.894Z,6.37
2018-09-27T02:04:47.522Z,7.53
2018-09-27T02:07:16.196Z,6.97
2018-09-27T02:09:44.822Z,7.73
2018-09-27T02:12:13.546Z,11.10
2018-09-27T02:14:42.168Z,9.17
2018-09-27T02:17:10.790Z,8.03
2018-09-27T02:19:39.432Z,8.17
2018-09-27T02:22:08.053Z,7.10
2018-09-27T02:24:36.724Z,6.27
2018-09-27T02:27:05.331Z,6.70
2018-09-27T02:29:33.921Z,6.00
2018-09-27T02:32:02.561Z,5.87
2018-09-27T02:34:31.186Z,5.10
2018-09-27T02:36:59.974Z,5.77
2018-09-27T02:39:28.609Z,5.83
2018-09-27T02:41:57.225Z,4.93
2018-09-27T02:44:25.905Z,5.63
2018-09-27T02:46:54.521Z,5.50
2018-09-27T02:49:23.173Z,6.43
2018-09-27T02:51:51.782Z,5.87
2018-09-27T02:54:20.402Z,5.90
2018-09-27T02:56:49.041Z,6.40
2018-09-27T02:59:17.660Z,6.50
2018-09-27T03:01:46.375Z,6.50
2018-09-27T03:04:15.007Z,5.63
2018-09-27T03:06:43.632Z,5.87
2018-09-27T03:09:13.348Z,5.40
2018-09-27T03:11:42.320Z,5.93
2018-09-27T03:14:10.966Z,5.37
2018-09-27T03:16:39.589Z,5.60
2018-09-27T03:19:08.260Z,5.40
2018-09-27T03:21:36.885Z,5.87
2018-09-27T03:24:05.530Z,5.67
2018-09-27T03:26:34.134Z,5.47
2018-09-27T03:29:02.794Z,5.40
2018-09-27T03:31:31.394Z,5.57
2018-09-27T03:34:00.114Z,5.90
2018-09-27T03:36:28.747Z,5.43
2018-09-27T03:38:57.365Z,5.80
2018-09-27T03:41:26.034Z,5.30
2018-09-27T03:43:54.700Z,5.70
2018-09-27T03:46:23.581Z,6.50
2018-09-27T03:48:52.238Z,5.87
2018-09-27T03:51:20.893Z,5.87
2018-09-27T03:53:49.532Z,5.77
2018-09-27T03:56:18.145Z,5.30
2018-09-27T03:58:46.788Z,5.87
2018-09-27T04:01:15.436Z,5.93
2018-09-27T04:03:44.070Z,5.33
2018-09-27T04:06:12.859Z,5.43
2018-09-27T04:08:41.470Z,5.80
2018-09-27T04:11:10.088Z,6.33
2018-09-27T04:13:38.730Z,5.63
2018-09-27T04:16:07.375Z,5.63
2018-09-27T04:18:36.006Z,5.60
2018-09-27T04:21:04.661Z,5.80
2018-09-27T04:23:33.287Z,5.73
2018-09-27T04:26:03.021Z,5.83
2018-09-27T04:28:31.641Z,5.57
2018-09-27T04:31:00.293Z,5.40
2018-09-27T04:33:28.925Z,5.53
2018-09-27T04:35:57.587Z,6.13
2018-09-27T04:38:26.213Z,5.70
2018-09-27T04:40:54.873Z,5.90
2018-09-27T04:43:23.523Z,5.97
2018-09-27T04:45:52.364Z,6.30
2018-09-27T04:48:20.987Z,6.13
2018-09-27T04:50:49.606Z,5.80
2018-09-27T04:53:18.234Z,6.37
2018-09-27T04:55:46.839Z,6.60
2018-09-27T04:58:15.567Z,8.40
2018-09-27T05:00:44.226Z,6.63
2018-09-27T05:03:12.837Z,6.80
2018-09-27T05:05:41.512Z,6.53
2018-09-27T05:08:10.140Z,5.93
2018-09-27T05:10:38.782Z,6.43
2018-09-27T05:13:07.394Z,6.23
2018-09-27T05:15:36.081Z,6.00
2018-09-27T05:18:04.706Z,5.90
2018-09-27T05:20:33.420Z,6.23
2018-09-27T05:23:01.994Z,6.10
2018-09-27T05:25:30.642Z,6.17
2018-09-27T05:27:59.257Z,6.73
2018-09-27T05:30:27.925Z,6.67
2018-09-27T05:32:56.544Z,6.80
2018-09-27T05:35:25.255Z,6.63
2018-09-27T05:37:53.872Z,5.93
2018-09-27T05:40:29.283Z,6.60
2018-09-27T05:42:57.997Z,6.17
2018-09-27T05:45:26.673Z,5.83
2018-09-27T05:47:55.274Z,6.47
2018-09-27T05:50:23.923Z,5.90
2018-09-27T05:52:52.577Z,6.50
2018-09-27T05:55:21.266Z,5.83
2018-09-27T05:57:50.181Z,6.40
2018-09-27T06:00:18.871Z,6.10
2018-09-27T06:02:47.495Z,6.37
2018-09-27T06:05:16.169Z,6.40
2018-09-27T06:07:44.811Z,6.50
2018-09-27T06:10:13.462Z,6.10
2018-09-27T06:12:42.090Z,5.40
2018-09-27T06:15:10.781Z,5.60
2018-09-27T06:17:39.414Z,6.73
2018-09-27T06:20:08.131Z,6.77
2018-09-27T06:22:36.762Z,6.60
2018-09-27T06:25:05.542Z,6.50
2018-09-27T06:27:34.262Z,6.33
2018-09-27T06:30:02.941Z,6.67
2018-09-27T06:32:31.567Z,5.50
2018-09-27T06:35:00.296Z,6.47
2018-09-27T06:37:28.951Z,5.97
2018-09-27T06:39:57.630Z,6.10
2018-09-27T06:42:26.363Z,6.70
2018-09-27T06:44:55.028Z,7.43
2018-09-27T06:47:23.758Z,5.67
2018-09-27T06:49:52.429Z,5.73
2018-09-27T06:52:21.132Z,5.90
2018-09-27T06:54:49.885Z,6.53
2018-09-27T06:57:18.571Z,6.60
2018-09-27T06:59:47.224Z,5.80
2018-09-27T07:02:15.978Z,6.70
2018-09-27T07:04:44.668Z,7.07
2018-09-27T07:07:13.395Z,6.63
2018-09-27T07:09:42.123Z,6.43
2018-09-27T07:12:10.884Z,6.90
2018-09-27T07:14:39.589Z,6.73
2018-09-27T07:17:08.282Z,7.27
2018-09-27T07:19:36.924Z,5.70
2018-09-27T07:22:05.598Z,6.23
2018-09-27T07:24:34.314Z,6.30
2018-09-27T07:27:03.474Z,6.57
2018-09-27T07:29:32.111Z,6.60
2018-09-27T07:32:00.819Z,7.27
2018-09-27T07:34:29.474Z,6.40
2018-09-27T07:36:58.262Z,6.37
2018-09-27T07:39:26.959Z,6.27
2018-09-27T07:41:55.618Z,6.97
2018-09-27T07:44:24.322Z,6.63
2018-09-27T07:46:52.984Z,6.83
2018-09-27T07:49:21.669Z,5.93
2018-09-27T07:51:50.347Z,5.90
2018-09-27T07:54:19.008Z,5.63
2018-09-27T07:56:47.685Z,6.30
2018-09-27T07:59:16.350Z,6.47
2018-09-27T08:01:45.051Z,6.27
2018-09-27T08:04:13.837Z,6.20
2018-09-27T08:06:42.435Z,6.20
2018-09-27T08:09:11.102Z,6.67
2018-09-27T08:11:40.181Z,6.70
2018-09-27T08:14:09.195Z,6.53
2018-09-27T08:16:38.511Z,6.53
2018-09-27T08:19:07.194Z,5.87
2018-09-27T08:21:35.858Z,6.80
2018-09-27T08:24:04.623Z,6.93
2018-09-27T08:26:33.265Z,6.90
2018-09-27T08:29:01.997Z,6.40
2018-09-27T08:31:30.671Z,6.57
2018-09-27T08:33:59.360Z,6.90
2018-09-27T08:36:28.044Z,7.60
2018-09-27T08:38:56.724Z,7.23
2018-09-27T08:41:25.658Z,6.57
2018-09-27T08:43:54.337Z,6.87
2018-09-27T08:46:23.003Z,7.17
2018-09-27T08:48:58.272Z,6.47
2018-09-27T08:51:26.995Z,7.20
2018-09-27T08:53:55.674Z,6.73
2018-09-27T08:56:24.414Z,6.17
2018-09-27T08:58:53.052Z,6.57
2018-09-27T09:01:21.780Z,7.17
2018-09-27T09:03:50.487Z,7.43
2018-09-27T09:06:19.274Z,6.70
2018-09-27T09:08:47.940Z,8.10
2018-09-27T09:11:16.632Z,7.87
2018-09-27T09:13:45.413Z,7.07
2018-09-27T09:16:14.043Z,7.33
2018-09-27T09:18:42.751Z,6.47
2018-09-27T09:21:11.419Z,6.67
2018-09-27T09:23:40.137Z,6.50
2018-09-27T09:26:08.885Z,6.70
2018-09-27T09:28:37.618Z,6.43
2018-09-27T09:31:06.487Z,6.03
2018-09-27T09:33:35.217Z,6.80
2018-09-27T09:36:03.976Z,6.43
2018-09-27T09:38:32.653Z,5.90
2018-09-27T09:41:01.354Z,6.60
2018-09-27T09:43:30.046Z,6.80
2018-09-27T09:45:58.815Z,6.30
2018-09-27T09:48:27.469Z,5.73
2018-09-27T09:50:56.220Z,5.67
2018-09-27T09:53:24.889Z,5.60
2018-09-27T09:55:53.697Z,6.10
2018-09-27T09:58:22.361Z,5.53
2018-09-27T10:00:51.034Z,5.70
2018-09-27T10:03:19.724Z,5.80
2018-09-27T10:05:48.409Z,4.67
2018-09-27T10:08:17.362Z,5.97
2018-09-27T10:10:46.125Z,4.97
2018-09-27T10:13:14.806Z,5.47
2018-09-27T10:15:43.503Z,5.53
2018-09-27T10:18:12.198Z,4.73
2018-09-27T10:20:40.915Z,4.70
2018-09-27T10:23:10.118Z,4.13
2018-09-27T10:25:38.781Z,5.03
2018-09-27T10:28:07.485Z,4.30
2018-09-27T10:30:36.129Z,4.50
2018-09-27T10:33:04.859Z,4.60
2018-09-27T10:35:33.546Z,5.00
2018-09-27T10:38:02.222Z,4.33
2018-09-27T10:40:30.905Z,4.43
2018-09-27T10:42:59.539Z,4.33
2018-09-27T10:45:28.235Z,4.10
2018-09-27T10:47:56.994Z,4.40
2018-09-27T10:50:25.631Z,4.20
2018-09-27T10:52:54.273Z,4.30
2018-09-27T10:55:22.935Z,4.47
2018-09-27T10:57:51.613Z,4.50
2018-09-27T11:00:23.040Z,3.83
2018-09-27T11:02:52.413Z,4.10
2018-09-27T11:05:21.219Z,3.93
2018-09-27T11:07:49.864Z,3.90
2018-09-27T11:10:18.533Z,3.87
2018-09-27T11:12:47.199Z,4.40
2018-09-27T11:15:15.857Z,3.70
2018-09-27T11:17:44.482Z,3.90
2018-09-27T11:20:13.156Z,3.90
2018-09-27T11:22:41.786Z,4.03
2018-09-27T11:25:10.567Z,3.73
2018-09-27T11:27:39.230Z,3.83
2018-09-27T11:30:13.214Z,5.13
2018-09-27T11:32:45.561Z,4.90
2018-09-27T11:35:14.864Z,5.67
2018-09-27T11:37:43.537Z,5.67
2018-09-27T11:40:12.199Z,5.30
2018-09-27T11:42:40.977Z,5.40
2018-09-27T11:45:10.036Z,4.63
2018-09-27T11:47:43.727Z,4.77
2018-09-27T11:50:24.470Z,4.43
2018-09-27T11:52:53.343Z,4.30
2018-09-27T11:55:22.080Z,5.43
2018-09-27T11:57:50.765Z,4.67
2018-09-27T12:00:19.474Z,5.07
2018-09-27T12:02:48.121Z,5.53
2018-09-27T12:05:16.786Z,5.17
2018-09-27T12:07:45.433Z,4.97
2018-09-27T12:10:14.143Z,4.67
2018-09-27T12:12:42.954Z,4.20
2018-09-27T12:15:11.671Z,4.17
2018-09-27T12:17:40.376Z,4.00
2018-09-27T12:20:09.069Z,4.37
2018-09-27T12:22:37.699Z,4.30
2018-09-27T12:25:07.092Z,5.07
2018-09-27T12:27:35.770Z,5.43
2018-09-27T12:30:04.638Z,3.73
2018-09-27T12:32:33.320Z,3.97
2018-09-27T12:35:02.092Z,3.60
2018-09-27T12:37:30.743Z,3.40
2018-09-27T12:39:59.420Z,3.23
2018-09-27T12:42:28.110Z,3.27
2018-09-27T12:44:56.804Z,3.50
2018-09-27T12:47:25.411Z,3.20
2018-09-27T12:49:54.087Z,2.87
2018-09-27T12:52:22.868Z,3.17
2018-09-27T12:54:51.435Z,2.77
2018-09-27T12:57:20.071Z,3.20
2018-09-27T12:59:48.833Z,2.60
2018-09-27T13:02:17.635Z,3.10
2018-09-27T13:04:46.165Z,3.40
2018-09-27T13:07:14.871Z,2.60
2018-09-27T13:09:43.655Z,3.67
2018-09-27T13:12:12.450Z,3.00
2018-09-27T13:14:41.080Z,3.07
2018-09-27T13:17:09.909Z,2.77
2018-09-27T13:19:38.649Z,3.00
2018-09-27T13:22:07.249Z,3.17
2018-09-27T13:24:36.236Z,2.73
2018-09-27T13:27:04.970Z,2.37
2018-09-27T13:29:33.647Z,2.60
2018-09-27T13:32:02.349Z,2.43
2018-09-27T13:34:31.042Z,2.93
2018-09-27T13:36:59.770Z,2.40
2018-09-27T13:39:28.393Z,2.37
2018-09-27T13:41:57.050Z,2.53
2018-09-27T13:44:25.724Z,1.83
2018-09-27T13:46:54.358Z,2.73
2018-09-27T13:49:23.030Z,2.43
2018-09-27T13:51:51.702Z,2.00
2018-09-27T13:54:20.337Z,2.30
2018-09-27T13:56:49.056Z,1.80
2018-09-27T13:59:17.707Z,2.00
2018-09-27T14:01:46.382Z,2.17
2018-09-27T14:04:15.047Z,1.70
2018-09-27T14:06:43.725Z,2.00
2018-09-27T14:09:12.362Z,1.93
2018-09-27T14:11:41.038Z,1.77
2018-09-27T14:14:09.734Z,1.80
2018-09-27T14:16:38.415Z,2.23
2018-09-27T14:19:07.095Z,2.40
2018-09-27T14:21:36.001Z,2.00
2018-09-27T14:24:04.685Z,2.10
2018-09-27T14:26:33.342Z,2.20
2018-09-27T14:29:02.031Z,2.30
2018-09-27T14:31:30.758Z,2.00
2018-09-27T14:33:59.509Z,2.10
2018-09-27T14:36:28.251Z,2.40
2018-09-27T14:38:56.926Z,2.30
2018-09-27T14:41:25.748Z,2.00
2018-09-27T14:43:54.382Z,2.17
2018-09-27T14:46:23.411Z,2.03
2018-09-27T14:48:52.093Z,2.10
2018-09-27T14:51:20.747Z,1.80
2018-09-27T14:53:49.434Z,2.00
2018-09-27T14:56:18.105Z,2.30
2018-09-27T14:58:46.918Z,2.00
2018-09-27T15:01:15.590Z,2.57
2018-09-27T15:03:44.271Z,2.20
2018-09-27T15:06:12.948Z,2.23
2018-09-27T15:08:41.594Z,2.83
2018-09-27T15:11:10.334Z,2.17
2018-09-27T15:13:39.050Z,2.67
2018-09-27T15:16:08.276Z,2.50
2018-09-27T15:18:37.591Z,2.60
2018-09-27T15:21:06.580Z,3.07
2018-09-27T15:23:35.732Z,2.37
2018-09-27T15:26:04.568Z,2.57
2018-09-27T15:28:33.483Z,2.40
2018-09-27T15:31:02.472Z,2.47
2018-09-27T15:33:31.395Z,2.63
2018-09-27T15:36:00.353Z,2.93
2018-09-27T15:38:29.291Z,3.37
2018-09-27T15:40:58.287Z,3.33
2018-09-27T15:43:27.273Z,3.30
2018-09-27T15:45:56.145Z,3.17
2018-09-27T15:48:24.942Z,2.80
2018-09-27T15:50:53.590Z,2.80
2018-09-27T15:53:22.271Z,3.47
2018-09-27T15:55:50.964Z,2.87
2018-09-27T15:58:19.625Z,2.73
2018-09-27T16:00:48.315Z,2.67
2018-09-27T16:03:16.960Z,3.80
2018-09-27T16:05:45.600Z,3.00
2018-09-27T16:08:14.263Z,3.23
2018-09-27T16:10:42.913Z,3.10
2018-09-27T16:13:11.625Z,3.00
2018-09-27T16:15:40.319Z,3.33
2018-09-27T16:18:08.998Z,2.90
2018-09-27T16:20:38.126Z,4.43
2018-09-27T16:23:06.965Z,2.60
2018-09-27T16:25:35.800Z,3.13
2018-09-27T16:28:04.446Z,4.70
2018-09-27T16:30:33.110Z,4.37
2018-09-27T16:33:01.804Z,3.37
2018-09-27T16:35:30.504Z,3.10
2018-09-27T16:37:59.319Z,3.37
2018-09-27T16:40:28.557Z,3.77
2018-09-27T16:42:57.240Z,3.50
2018-09-27T16:45:25.918Z,3.67
2018-09-27T16:47:54.601Z,3.87
2018-09-27T16:50:23.298Z,3.77
2018-09-27T16:52:51.949Z,3.30
2018-09-27T16:55:20.601Z,2.90
2018-09-27T16:57:49.286Z,3.00
2018-09-27T17:00:17.946Z,3.43
2018-09-27T17:02:46.634Z,3.73
2018-09-27T17:05:15.279Z,4.07
2018-09-27T17:07:43.978Z,3.57
2018-09-27T17:10:12.659Z,3.30
2018-09-27T17:12:41.335Z,3.90
2018-09-27T17:15:09.986Z,6.93
2018-09-27T17:17:39.039Z,6.50
2018-09-27T17:20:07.724Z,5.10
2018-09-27T17:22:36.672Z,5.37
2018-09-27T17:25:05.723Z,3.53
2018-09-27T17:27:34.376Z,3.70
2018-09-27T17:30:09.830Z,4.03
2018-09-27T17:32:38.514Z,4.13
2018-09-27T17:35:07.215Z,4.23
2018-09-27T17:37:36.019Z,3.90
2018-09-27T17:40:05.218Z,4.07
2018-09-27T17:42:34.004Z,4.70
2018-09-27T17:45:03.048Z,5.40
2018-09-27T17:47:31.739Z,4.20
2018-09-27T17:50:00.455Z,4.00
2018-09-27T17:52:29.169Z,4.17
2018-09-27T17:54:59.289Z,4.73
2018-09-27T17:57:28.338Z,5.23
2018-09-27T17:59:57.098Z,5.43
2018-09-27T18:02:25.770Z,6.10
2018-09-27T18:04:54.418Z,6.37
2018-09-27T18:07:23.216Z,6.10
2018-09-27T18:09:51.879Z,9.27
2018-09-27T18:12:20.542Z,7.67
2018-09-27T18:14:49.229Z,8.47
2018-09-27T18:17:18.710Z,7.57
2018-09-27T18:19:47.551Z,8.37
2018-09-27T18:22:16.337Z,9.53
2018-09-27T18:24:45.167Z,10.43
2018-09-27T18:27:13.973Z,8.60
2018-09-27T18:29:42.703Z,6.70
2018-09-27T18:32:11.504Z,5.97
2018-09-27T18:34:41.435Z,5.90
2018-09-27T18:37:10.247Z,5.90
2018-09-27T18:39:38.935Z,5.37
2018-09-27T18:42:07.711Z,6.37
2018-09-27T18:44:36.398Z,5.67
2018-09-27T18:47:05.038Z,5.60
2018-09-27T18:49:34.171Z,5.60
2018-09-27T18:52:03.391Z,5.53
2018-09-27T18:54:33.181Z,5.63
2018-09-27T18:57:02.678Z,5.80
2018-09-27T18:59:31.367Z,5.67
2018-09-27T19:02:00.079Z,5.67
2018-09-27T19:04:28.769Z,5.43
2018-09-27T19:06:57.434Z,5.63
2018-09-27T19:09:26.119Z,6.20
2018-09-27T19:11:54.875Z,6.67
2018-09-27T19:14:23.640Z,8.73
2018-09-27T19:16:52.368Z,7.10
2018-09-27T19:19:21.058Z,6.90
2018-09-27T19:21:49.769Z,7.00
2018-09-27T19:24:18.449Z,6.40
2018-09-27T19:26:47.105Z,6.17
2018-09-27T19:29:15.792Z,7.07
2018-09-27T19:31:44.583Z,6.80
2018-09-27T19:34:13.254Z,6.10
2018-09-27T19:36:41.954Z,5.93
2018-09-27T19:39:10.902Z,6.27
2018-09-27T19:41:40.339Z,6.30
2018-09-27T19:44:11.010Z,7.07
2018-09-27T19:46:39.730Z,6.60
2018-09-27T19:49:08.711Z,6.37
2018-09-27T19:51:37.361Z,5.60
2018-09-27T19:54:06.111Z,5.90
2018-09-27T19:56:34.789Z,6.93
2018-09-27T19:59:04.135Z,7.20
2018-09-27T20:01:32.833Z,7.90
2018-09-27T20:04:01.572Z,7.77
2018-09-27T20:06:30.295Z,7.70
2018-09-27T20:08:58.943Z,7.77
2018-09-27T20:11:27.737Z,6.60
2018-09-27T20:13:56.401Z,7.97
2018-09-27T20:16:25.155Z,7.87
2018-09-27T20:18:53.750Z,6.93
2018-09-27T20:21:22.434Z,7.53
2018-09-27T20:23:52.082Z,9.37
2018-09-27T20:26:20.756Z,9.03
2018-09-27T20:28:49.423Z,10.87
2018-09-27T20:31:18.123Z,9.03
2018-09-27T20:33:46.787Z,7.97
2018-09-27T20:36:15.451Z,17.20
2018-09-27T20:38:44.147Z,31.50
2018-09-27T20:41:12.830Z,20.07
2018-09-27T20:43:41.542Z,14.03
2018-09-27T20:46:10.194Z,8.57
2018-09-27T20:48:38.864Z,8.63
2018-09-27T20:51:07.608Z,13.20
2018-09-27T20:53:36.295Z,23.60
2018-09-27T20:56:05.305Z,18.83
2018-09-27T20:58:33.962Z,8.27
2018-09-27T21:01:03.308Z,7.57
2018-09-27T21:03:31.983Z,8.43
2018-09-27T21:06:00.614Z,8.60
2018-09-27T21:08:29.509Z,11.20
2018-09-27T21:10:58.148Z,11.53
2018-09-27T21:13:26.777Z,14.27
2018-09-27T21:15:55.455Z,10.87
2018-09-27T21:18:24.080Z,28.90
2018-09-27T21:20:52.789Z,11.07
2018-09-27T21:23:21.407Z,27.73
2018-09-27T21:25:50.046Z,11.33
2018-09-27T21:28:18.745Z,9.00
2018-09-27T21:30:47.383Z,9.10
2018-09-27T21:33:16.161Z,8.67
2018-09-27T21:35:44.823Z,8.97
2018-09-27T21:38:13.462Z,8.37
2018-09-27T21:40:42.115Z,11.17
2018-09-27T21:43:10.794Z,11.17
2018-09-27T21:45:39.434Z,10.30
2018-09-27T21:48:08.086Z,9.60
2018-09-27T21:50:36.706Z,11.23
2018-09-27T21:53:05.388Z,11.23
2018-09-27T21:55:34.026Z,17.07
2018-09-27T21:58:02.974Z,16.67
2018-09-27T22:00:31.628Z,17.40
2018-09-27T22:03:00.306Z,10.63
2018-09-27T22:05:28.997Z,21.37
2018-09-27T22:07:57.645Z,10.23
2018-09-27T22:10:26.421Z,9.60
2018-09-27T22:12:55.107Z,9.20
2018-09-27T22:15:23.731Z,8.40
2018-09-27T22:17:52.443Z,8.47
2018-09-27T22:20:21.102Z,7.90
2018-09-27T22:22:49.806Z,8.33
2018-09-27T22:25:18.502Z,8.40
2018-09-27T22:27:47.131Z,7.77
2018-09-27T22:30:15.795Z,8.97
2018-09-27T22:32:44.474Z,8.27
2018-09-27T22:35:13.136Z,7.60
2018-09-27T22:37:41.773Z,7.37
2018-09-27T22:40:10.455Z,7.97
2018-09-27T22:42:39.111Z,8.57
2018-09-27T22:45:07.792Z,11.57
2018-09-27T22:47:36.560Z,8.63
2018-09-27T22:50:05.291Z,8.40
2018-09-27T22:52:33.932Z,10.10
2018-09-27T22:55:02.799Z,9.07
2018-09-27T22:57:31.455Z,9.97
2018-09-27T23:00:00.110Z,8.07
2018-09-27T23:02:28.749Z,9.27
2018-09-27T23:04:57.374Z,8.40
2018-09-27T23:07:26.070Z,8.20
2018-09-27T23:09:54.923Z,7.93
2018-09-27T23:12:23.558Z,8.80
2018-09-27T23:14:52.186Z,9.27
2018-09-27T23:17:20.837Z,8.63
2018-09-27T23:19:49.564Z,12.43
2018-09-27T23:22:18.186Z,8.97
2018-09-27T23:24:47.075Z,8.30
2018-09-27T23:27:15.705Z,7.90
2018-09-27T23:29:44.327Z,8.43
2018-09-27T23:32:13.006Z,8.10
2018-09-27T23:34:41.657Z,8.30
2018-09-27T23:37:10.390Z,8.30
2018-09-27T23:39:39.022Z,9.00
2018-09-27T23:42:07.738Z,8.33
2018-09-27T23:44:36.453Z,8.27
2018-09-27T23:47:05.087Z,8.10
2018-09-27T23:49:33.782Z,8.63
2018-09-27T23:52:03.147Z,13.80
2018-09-27T23:54:31.801Z,10.03
2018-09-27T23:57:00.494Z,9.77
2018-09-27T23:59:29.138Z,9.60
